createdAt,value
2022-08-03T00:01:54.124Z,11.77
2022-08-03T00:04:22.436Z,9.18
2022-08-03T00:07:02.694Z,9.07
2022-08-03T00:09:35.565Z,9.80
2022-08-03T00:12:04.415Z,9.45
2022-08-03T00:14:32.766Z,10.15
2022-08-03T00:17:02.482Z,9.52
2022-08-03T00:19:30.963Z,9.75
2022-08-03T00:21:59.205Z,10.27
2022-08-03T00:24:27.582Z,9.95
2022-08-03T00:26:55.865Z,9.95
2022-08-03T00:29:24.164Z,9.52
2022-08-03T00:31:59.474Z,9.93
2022-08-03T00:34:36.598Z,9.80
2022-08-03T00:37:18.391Z,10.18
2022-08-03T00:39:48.145Z,10.25
2022-08-03T00:42:16.797Z,10.27
2022-08-03T00:44:46.634Z,9.38
2022-08-03T00:47:14.992Z,9.98
2022-08-03T00:49:44.816Z,11.32
2022-08-03T00:52:16.527Z,10.88
2022-08-03T00:54:44.877Z,10.15
2022-08-03T00:57:13.387Z,10.70
2022-08-03T00:59:41.690Z,10.98
2022-08-03T01:02:09.995Z,9.65
2022-08-03T01:04:38.358Z,10.80
2022-08-03T01:07:17.458Z,9.95
2022-08-03T01:09:57.289Z,10.52
2022-08-03T01:12:36.116Z,10.23
2022-08-03T01:15:11.479Z,11.77
2022-08-03T01:17:50.728Z,11.32
2022-08-03T01:20:21.958Z,11.15
2022-08-03T01:23:04.433Z,11.18
2022-08-03T01:25:44.381Z,11.05
2022-08-03T01:28:28.773Z,11.63
2022-08-03T01:31:02.934Z,11.23
2022-08-03T01:33:37.776Z,11.18
2022-08-03T01:36:08.818Z,10.57
2022-08-03T01:38:43.114Z,10.45
2022-08-03T01:41:14.946Z,10.18
2022-08-03T01:44:26.828Z,9.50
2022-08-03T01:46:40.440Z,9.43
2022-08-03T01:49:17.632Z,10.18
2022-08-03T01:51:57.733Z,10.07
2022-08-03T01:54:36.046Z,10.50
2022-08-03T01:57:05.523Z,10.55
2022-08-03T01:59:36.841Z,11.00
2022-08-03T02:02:29.202Z,10.52
2022-08-03T02:04:57.999Z,10.95
2022-08-03T02:07:27.871Z,10.15
2022-08-03T02:09:58.386Z,11.75
2022-08-03T02:12:28.879Z,11.25
2022-08-03T02:15:00.015Z,11.38
2022-08-03T02:17:39.618Z,12.20
2022-08-03T02:20:12.246Z,11.68
2022-08-03T02:22:42.077Z,10.82
2022-08-03T02:25:11.925Z,11.90
2022-08-03T02:27:44.291Z,12.20
2022-08-03T02:30:14.444Z,11.52
2022-08-03T02:32:50.034Z,10.88
2022-08-03T02:35:21.583Z,10.70
2022-08-03T02:37:53.803Z,10.68
2022-08-03T02:40:24.495Z,11.20
2022-08-03T02:42:56.739Z,11.93
2022-08-03T02:45:27.397Z,11.65
2022-08-03T02:48:02.127Z,11.48
2022-08-03T02:50:31.815Z,11.00
2022-08-03T02:53:00.860Z,11.05
2022-08-03T02:55:30.600Z,10.05
2022-08-03T02:58:01.601Z,11.73
2022-08-03T03:00:32.506Z,11.38
2022-08-03T03:03:06.306Z,12.05
2022-08-03T03:05:54.682Z,11.70
2022-08-03T03:08:28.761Z,11.30
2022-08-03T03:10:59.418Z,11.52
2022-08-03T03:13:29.370Z,11.77
2022-08-03T03:16:01.627Z,12.57
2022-08-03T03:18:33.739Z,10.52
2022-08-03T03:21:04.356Z,10.68
2022-08-03T03:23:36.417Z,10.70
2022-08-03T03:26:05.888Z,10.02
2022-08-03T03:28:37.011Z,10.20
2022-08-03T03:31:06.125Z,10.10
2022-08-03T03:33:37.215Z,10.32
2022-08-03T03:36:06.709Z,9.90
2022-08-03T03:38:35.702Z,10.57
2022-08-03T03:41:04.445Z,11.15
2022-08-03T03:43:33.186Z,10.68
2022-08-03T03:46:02.379Z,10.55
2022-08-03T03:48:30.652Z,9.63
2022-08-03T03:51:02.761Z,9.63
2022-08-03T03:53:30.987Z,10.38
2022-08-03T03:56:02.668Z,10.27
2022-08-03T03:58:33.734Z,10.05
2022-08-03T04:01:02.282Z,9.35
2022-08-03T04:03:30.777Z,10.23
2022-08-03T04:06:16.746Z,9.30
2022-08-03T04:09:16.005Z,9.48
2022-08-03T04:11:50.204Z,10.50
2022-08-03T04:14:21.916Z,11.15
2022-08-03T04:16:53.184Z,11.02
2022-08-03T04:19:27.508Z,11.93
2022-08-03T04:21:59.088Z,11.77
2022-08-03T04:24:35.130Z,13.23
2022-08-03T04:27:06.739Z,13.02
2022-08-03T04:29:38.692Z,13.52
2022-08-03T04:32:16.374Z,16.08
2022-08-03T04:34:45.075Z,14.77
2022-08-03T04:37:17.802Z,15.27
2022-08-03T04:39:50.487Z,17.00
2022-08-03T04:42:23.630Z,16.67
2022-08-03T04:44:55.578Z,15.55
2022-08-03T04:47:27.675Z,15.43
2022-08-03T04:49:56.809Z,14.27
2022-08-03T04:52:25.615Z,14.50
2022-08-03T04:54:55.418Z,14.32
2022-08-03T04:57:23.799Z,14.13
2022-08-03T05:00:01.446Z,14.73
2022-08-03T05:02:32.429Z,14.00
2022-08-03T05:05:01.072Z,12.65
2022-08-03T05:07:36.090Z,13.68
2022-08-03T05:10:14.886Z,13.93
2022-08-03T05:12:45.709Z,12.93
2022-08-03T05:15:14.252Z,13.02
2022-08-03T05:17:43.678Z,12.55
2022-08-03T05:20:12.987Z,14.40
2022-08-03T05:22:41.489Z,15.48
2022-08-03T05:25:19.815Z,14.68
2022-08-03T05:27:49.861Z,13.65
2022-08-03T05:30:31.109Z,14.10
2022-08-03T05:33:03.779Z,12.90
2022-08-03T05:36:01.413Z,12.18
2022-08-03T05:38:28.271Z,11.85
2022-08-03T05:41:20.990Z,12.52
2022-08-03T05:43:48.194Z,12.75
2022-08-03T05:46:16.779Z,13.40
2022-08-03T05:48:45.073Z,11.75
2022-08-03T05:51:13.616Z,11.82
2022-08-03T05:53:42.809Z,12.23
2022-08-03T05:56:15.094Z,13.68
2022-08-03T05:58:45.490Z,14.15
2022-08-03T06:01:13.841Z,15.35
2022-08-03T06:03:43.763Z,13.77
2022-08-03T06:06:12.514Z,13.32
2022-08-03T06:08:41.773Z,16.60
2022-08-03T06:11:10.421Z,15.20
2022-08-03T06:13:40.347Z,15.13
2022-08-03T06:16:08.647Z,14.32
2022-08-03T06:18:37.556Z,13.93
2022-08-03T06:21:14.454Z,13.73
2022-08-03T06:23:53.035Z,13.80
2022-08-03T06:26:22.314Z,15.20
2022-08-03T06:28:54.234Z,12.57
2022-08-03T06:31:25.999Z,13.10
2022-08-03T06:34:34.055Z,12.00
2022-08-03T06:36:52.234Z,12.30
2022-08-03T06:39:23.433Z,12.40
2022-08-03T06:41:53.605Z,12.18
2022-08-03T06:44:23.228Z,12.35
2022-08-03T06:46:51.915Z,12.30
2022-08-03T06:49:20.405Z,12.43
2022-08-03T06:52:04.327Z,12.57
2022-08-03T06:54:35.928Z,11.15
2022-08-03T06:57:04.875Z,12.18
2022-08-03T07:00:06.146Z,11.77
2022-08-03T07:02:24.182Z,13.02
2022-08-03T07:04:56.784Z,13.50
2022-08-03T07:07:25.062Z,15.20
2022-08-03T07:09:57.335Z,12.80
2022-08-03T07:12:28.183Z,13.20
2022-08-03T07:15:01.827Z,13.63
2022-08-03T07:17:31.483Z,13.50
2022-08-03T07:20:00.218Z,14.10
2022-08-03T07:22:28.695Z,11.48
2022-08-03T07:24:58.634Z,11.82
2022-08-03T07:27:29.483Z,11.57
2022-08-03T07:30:00.155Z,10.00
2022-08-03T07:32:31.497Z,9.80
2022-08-03T07:35:01.235Z,9.50
2022-08-03T07:37:30.878Z,9.20
2022-08-03T07:39:59.593Z,10.43
2022-08-03T07:42:27.946Z,9.77
2022-08-03T07:44:56.818Z,9.18
2022-08-03T07:47:34.957Z,9.00
2022-08-03T07:50:05.693Z,9.55
2022-08-03T07:52:49.573Z,9.43
2022-08-03T07:55:18.773Z,9.07
2022-08-03T07:57:47.030Z,7.82
2022-08-03T08:00:17.776Z,7.05
2022-08-03T08:02:47.701Z,7.45
2022-08-03T08:05:16.025Z,6.60
2022-08-03T08:07:44.316Z,7.32
2022-08-03T08:10:19.341Z,6.90
2022-08-03T08:12:48.309Z,6.38
2022-08-03T08:15:16.965Z,6.20
2022-08-03T08:17:48.635Z,5.50
2022-08-03T08:20:28.078Z,4.97
2022-08-03T08:23:01.586Z,5.85
2022-08-03T08:25:31.652Z,5.32
2022-08-03T08:28:30.710Z,5.15
2022-08-03T08:30:51.383Z,5.00
2022-08-03T08:33:23.327Z,5.53
2022-08-03T08:35:54.194Z,4.97
2022-08-03T08:38:23.108Z,3.92
2022-08-03T08:40:52.111Z,3.45
2022-08-03T08:43:20.501Z,2.88
2022-08-03T08:45:51.740Z,3.22
2022-08-03T08:48:25.621Z,3.22
2022-08-03T08:50:55.007Z,3.65
2022-08-03T08:53:27.173Z,2.70
2022-08-03T08:56:00.919Z,3.45
2022-08-03T08:58:33.506Z,3.58
2022-08-03T09:01:01.875Z,3.22
2022-08-03T09:03:34.043Z,3.30
2022-08-03T09:06:02.824Z,3.08
2022-08-03T09:08:32.498Z,3.15
2022-08-03T09:11:00.986Z,3.30
2022-08-03T09:13:30.624Z,2.75
2022-08-03T09:16:13.658Z,3.50
2022-08-03T09:18:44.185Z,4.65
2022-08-03T09:21:33.944Z,4.82
2022-08-03T09:24:08.473Z,3.50
2022-08-03T09:26:53.604Z,5.13
2022-08-03T09:29:23.230Z,7.25
2022-08-03T09:32:01.169Z,4.47
2022-08-03T09:34:31.814Z,7.38
2022-08-03T09:37:00.091Z,6.18
2022-08-03T09:39:41.040Z,6.78
2022-08-03T09:42:14.678Z,6.07
2022-08-03T09:44:44.748Z,5.63
2022-08-03T09:47:14.068Z,7.63
2022-08-03T09:49:57.255Z,5.82
2022-08-03T09:52:49.344Z,5.22
2022-08-03T09:56:32.953Z,5.55
2022-08-03T09:58:10.758Z,5.93
2022-08-03T10:00:55.975Z,5.50
2022-08-03T10:03:25.010Z,4.88
2022-08-03T10:05:59.338Z,4.22
2022-08-03T10:08:28.839Z,3.17
2022-08-03T10:10:58.816Z,4.10
2022-08-03T10:13:27.181Z,4.90
2022-08-03T10:16:21.203Z,5.53
2022-08-03T10:18:43.802Z,17.60
2022-08-03T10:21:29.806Z,35.75
2022-08-03T10:23:58.542Z,4.32
2022-08-03T10:26:33.746Z,5.60
2022-08-03T10:29:12.446Z,6.32
2022-08-03T10:31:55.916Z,7.55
2022-08-03T10:34:28.275Z,6.68
2022-08-03T10:37:01.318Z,7.38
2022-08-03T10:39:31.385Z,7.00
2022-08-03T10:42:02.554Z,7.25
2022-08-03T10:44:38.415Z,7.32
2022-08-03T10:47:07.254Z,8.45
2022-08-03T10:49:36.061Z,7.82
2022-08-03T10:52:13.207Z,8.45
2022-08-03T10:55:12.870Z,8.20
2022-08-03T10:57:50.560Z,9.02
2022-08-03T11:00:22.342Z,9.68
2022-08-03T11:03:08.847Z,8.32
2022-08-03T11:05:40.136Z,6.93
2022-08-03T11:08:31.219Z,6.32
2022-08-03T11:11:01.752Z,7.15
2022-08-03T11:13:34.014Z,7.03
2022-08-03T11:16:07.787Z,7.88
2022-08-03T11:18:37.899Z,8.43
2022-08-03T11:21:07.222Z,8.13
2022-08-03T11:24:04.172Z,8.00
2022-08-03T11:26:34.413Z,7.90
2022-08-03T11:29:30.162Z,7.25
2022-08-03T11:31:58.796Z,6.75
2022-08-03T11:34:27.784Z,7.30
2022-08-03T11:37:28.793Z,5.93
2022-08-03T11:40:03.140Z,6.35
2022-08-03T11:42:51.192Z,4.00
2022-08-03T11:45:19.975Z,5.75
2022-08-03T11:47:51.564Z,4.30
2022-08-03T11:50:21.544Z,5.15
2022-08-03T11:52:50.833Z,5.97
2022-08-03T11:55:22.005Z,7.38
2022-08-03T11:59:13.166Z,5.72
2022-08-03T12:00:40.576Z,15.90
2022-08-03T12:03:11.289Z,7.65
2022-08-03T12:05:52.692Z,5.97
2022-08-03T12:08:32.715Z,7.47
2022-08-03T12:11:05.794Z,5.68
2022-08-03T12:14:44.892Z,6.13
2022-08-03T12:16:30.464Z,6.70
2022-08-03T12:18:59.949Z,6.28
2022-08-03T12:21:29.259Z,6.25
2022-08-03T12:24:01.922Z,5.70
2022-08-03T12:26:43.322Z,6.53
2022-08-03T12:29:18.245Z,5.80
2022-08-03T12:31:46.816Z,6.35
2022-08-03T12:34:15.651Z,5.53
2022-08-03T12:36:52.632Z,6.07
2022-08-03T12:39:25.315Z,5.78
2022-08-03T12:41:56.887Z,5.40
2022-08-03T12:44:32.149Z,4.55
2022-08-03T12:47:01.130Z,5.78
2022-08-03T12:49:30.506Z,4.85
2022-08-03T12:52:06.885Z,6.78
2022-08-03T12:54:36.206Z,6.22
2022-08-03T12:57:07.171Z,4.65
2022-08-03T12:59:40.778Z,5.72
2022-08-03T13:02:20.818Z,6.18
2022-08-03T13:04:53.487Z,4.35
2022-08-03T13:07:23.027Z,4.50
2022-08-03T13:09:53.338Z,5.25
2022-08-03T13:12:24.622Z,4.70
2022-08-03T13:14:54.171Z,5.65
2022-08-03T13:17:22.845Z,5.88
2022-08-03T13:19:52.033Z,5.82
2022-08-03T13:22:22.193Z,4.75
2022-08-03T13:24:53.071Z,4.50
2022-08-03T13:28:04.740Z,4.88
2022-08-03T13:30:12.177Z,5.18
2022-08-03T13:32:40.614Z,5.60
2022-08-03T13:35:10.952Z,4.82
2022-08-03T13:37:44.579Z,5.78
2022-08-03T13:40:17.207Z,5.07
2022-08-03T13:42:47.488Z,6.47
2022-08-03T13:45:15.744Z,5.15
2022-08-03T13:47:44.049Z,5.15
2022-08-03T13:50:12.354Z,5.47
2022-08-03T13:52:40.651Z,8.40
2022-08-03T13:55:09.801Z,6.35
2022-08-03T13:58:02.454Z,4.80
2022-08-03T14:00:29.641Z,4.75
2022-08-03T14:03:12.506Z,4.30
2022-08-03T14:05:42.197Z,5.13
2022-08-03T14:08:10.524Z,6.05
2022-08-03T14:10:40.769Z,5.32
2022-08-03T14:13:09.386Z,6.38
2022-08-03T14:15:39.195Z,5.38
2022-08-03T14:18:12.870Z,5.15
2022-08-03T14:20:49.031Z,5.85
2022-08-03T14:23:20.445Z,4.95
2022-08-03T14:25:52.210Z,5.63
2022-08-03T14:28:23.760Z,4.95
2022-08-03T14:30:54.843Z,6.65
2022-08-03T14:33:23.672Z,5.40
2022-08-03T14:35:53.331Z,6.80
2022-08-03T14:38:22.666Z,5.28
2022-08-03T14:40:51.421Z,6.03
2022-08-03T14:43:20.361Z,5.22
2022-08-03T14:45:48.852Z,4.65
2022-08-03T14:50:31.464Z,5.40
2022-08-03T14:51:07.066Z,5.80
2022-08-03T14:53:35.727Z,5.40
2022-08-03T14:56:09.403Z,6.13
2022-08-03T14:58:38.825Z,5.22
2022-08-03T15:02:02.675Z,6.38
2022-08-03T15:03:57.631Z,5.22
2022-08-03T15:06:25.986Z,5.88
2022-08-03T15:09:24.237Z,5.72
2022-08-03T15:11:42.871Z,5.78
2022-08-03T15:14:13.545Z,4.72
2022-08-03T15:16:43.104Z,5.00
2022-08-03T15:20:02.236Z,5.63
2022-08-03T15:22:01.933Z,5.18
2022-08-03T15:24:30.659Z,5.10
2022-08-03T15:26:59.238Z,5.30
2022-08-03T15:30:07.793Z,5.40
2022-08-03T15:32:16.743Z,5.28
2022-08-03T15:34:50.239Z,5.82
2022-08-03T15:37:20.782Z,5.70
2022-08-03T15:40:00.047Z,5.60
2022-08-03T15:42:30.308Z,5.45
2022-08-03T15:44:58.981Z,6.15
2022-08-03T15:47:27.896Z,5.10
2022-08-03T15:49:57.656Z,4.68
2022-08-03T15:52:26.142Z,5.00
2022-08-03T15:54:54.818Z,4.68
2022-08-03T15:57:23.812Z,5.00
2022-08-03T15:59:53.078Z,5.10
2022-08-03T16:02:21.594Z,5.28
2022-08-03T16:04:49.910Z,5.18
2022-08-03T16:07:40.310Z,4.75
2022-08-03T16:10:12.951Z,5.00
2022-08-03T16:12:43.848Z,5.25
2022-08-03T16:15:13.300Z,5.88
2022-08-03T16:17:42.418Z,5.13
2022-08-03T16:20:34.325Z,6.05
2022-08-03T16:23:11.346Z,5.13
2022-08-03T16:25:40.305Z,5.22
2022-08-03T16:28:13.775Z,4.70
2022-08-03T16:30:44.469Z,5.78
2022-08-03T16:33:17.431Z,5.20
2022-08-03T16:35:51.244Z,5.88
2022-08-03T16:38:24.728Z,5.10
2022-08-03T16:40:53.445Z,5.57
2022-08-03T16:43:23.241Z,5.15
2022-08-03T16:45:52.038Z,5.13
2022-08-03T16:48:20.717Z,5.32
2022-08-03T16:50:49.326Z,5.15
2022-08-03T16:53:51.530Z,4.57
2022-08-03T16:56:10.611Z,5.68
2022-08-03T16:58:42.524Z,4.95
2022-08-03T17:01:21.733Z,4.63
2022-08-03T17:04:02.162Z,6.22
2022-08-03T17:06:34.509Z,4.78
2022-08-03T17:09:04.505Z,4.75
2022-08-03T17:11:43.844Z,4.93
2022-08-03T17:14:17.016Z,5.00
2022-08-03T17:16:52.617Z,4.68
2022-08-03T17:19:24.150Z,5.20
2022-08-03T17:22:04.289Z,4.90
2022-08-03T17:24:34.532Z,4.82
2022-08-03T17:27:09.281Z,5.15
2022-08-03T17:30:01.381Z,4.78
2022-08-03T17:32:33.594Z,4.68
2022-08-03T17:35:02.487Z,5.10
2022-08-03T17:37:57.523Z,5.07
2022-08-03T17:40:20.368Z,5.40
2022-08-03T17:42:52.860Z,4.75
2022-08-03T17:45:22.070Z,5.07
2022-08-03T17:47:58.265Z,5.25
2022-08-03T17:50:35.920Z,5.05
2022-08-03T17:53:23.977Z,5.18
2022-08-03T17:56:40.350Z,4.97
2022-08-03T17:59:08.439Z,5.78
2022-08-03T18:02:06.181Z,5.65
2022-08-03T18:04:46.447Z,6.20
2022-08-03T18:10:21.673Z,5.50
2022-08-03T18:12:54.269Z,5.43
2022-08-03T18:15:30.579Z,5.43
2022-08-03T18:18:10.842Z,6.20
2022-08-03T18:20:42.381Z,5.97
2022-08-03T18:23:25.521Z,5.60
2022-08-03T18:26:04.959Z,5.68
2022-08-03T18:28:36.540Z,5.50
2022-08-03T18:31:07.410Z,6.20
2022-08-03T18:34:17.503Z,6.05
2022-08-03T18:36:30.560Z,6.63
2022-08-03T18:39:02.426Z,5.82
2022-08-03T18:44:52.807Z,5.65
2022-08-03T18:47:50.879Z,5.90
2022-08-03T18:50:35.725Z,6.20
2022-08-03T18:53:16.165Z,5.57
2022-08-03T18:56:01.820Z,6.05
2022-08-03T18:58:38.741Z,6.03
2022-08-03T19:02:00.544Z,5.97
2022-08-03T19:04:11.578Z,6.13
2022-08-03T19:06:44.845Z,5.95
2022-08-03T19:09:22.572Z,6.32
2022-08-03T19:12:13.189Z,6.85
2022-08-03T19:14:56.296Z,7.03
2022-08-03T19:17:29.284Z,7.15
2022-08-03T19:20:01.544Z,6.85
2022-08-03T19:22:30.707Z,6.63
2022-08-03T19:25:02.017Z,7.20
2022-08-03T19:27:32.166Z,7.18
2022-08-03T19:30:04.482Z,7.30
2022-08-03T19:32:36.656Z,7.93
2022-08-03T19:35:13.240Z,7.95
2022-08-03T19:37:45.522Z,7.75
2022-08-03T19:40:13.924Z,7.32
2022-08-03T19:42:46.519Z,7.35
2022-08-03T19:45:18.604Z,7.72
2022-08-03T19:47:52.748Z,7.65
2022-08-03T19:50:22.644Z,7.55
2022-08-03T19:52:52.473Z,7.88
2022-08-03T19:55:21.531Z,8.48
2022-08-03T19:57:54.857Z,9.10
2022-08-03T20:00:26.710Z,8.82
2022-08-03T20:02:59.524Z,8.52
2022-08-03T20:05:30.703Z,8.90
2022-08-03T20:08:20.955Z,8.70
2022-08-03T20:10:51.362Z,7.88
2022-08-03T20:13:20.742Z,7.93
2022-08-03T20:15:53.298Z,8.35
2022-08-03T20:18:22.226Z,8.57
2022-08-03T20:20:54.644Z,8.77
2022-08-03T20:23:26.189Z,7.80
2022-08-03T20:26:06.774Z,8.55
2022-08-03T20:28:50.015Z,8.00
2022-08-03T20:31:23.788Z,7.95
2022-08-03T20:33:59.267Z,8.30
2022-08-03T20:36:29.201Z,8.32
2022-08-03T20:38:58.954Z,7.38
2022-08-03T20:41:28.310Z,7.63
2022-08-03T20:44:00.961Z,7.22
2022-08-03T20:46:38.519Z,7.15
2022-08-03T20:49:23.073Z,7.53
2022-08-03T20:51:53.867Z,7.78
2022-08-03T20:54:30.521Z,8.02
2022-08-03T20:57:03.755Z,8.68
2022-08-03T20:59:46.976Z,8.18
2022-08-03T21:02:19.289Z,7.93
2022-08-03T21:04:48.754Z,8.55
2022-08-03T21:07:23.066Z,7.85
2022-08-03T21:09:55.451Z,7.80
2022-08-03T21:12:35.066Z,8.38
2022-08-03T21:12:56.703Z,5.85
2022-08-03T21:13:05.448Z,5.93
2022-08-03T21:15:06.222Z,8.38
2022-08-03T21:17:40.994Z,8.80
2022-08-03T21:20:14.088Z,8.40
2022-08-03T21:22:49.169Z,8.60
2022-08-03T21:25:18.436Z,8.05
2022-08-03T21:27:47.126Z,8.38
2022-08-03T21:30:16.060Z,8.85
2022-08-03T21:32:46.280Z,9.00
2022-08-03T21:35:15.132Z,8.82
2022-08-03T21:37:46.016Z,8.98
2022-08-03T21:40:17.215Z,8.65
2022-08-03T21:42:46.620Z,9.85
2022-08-03T21:45:17.657Z,9.30
2022-08-03T21:47:48.500Z,11.25
2022-08-03T21:50:17.842Z,9.48
2022-08-03T21:52:49.771Z,9.45
2022-08-03T21:55:21.063Z,9.10
2022-08-03T21:57:53.958Z,9.75
2022-08-03T22:00:24.093Z,9.63
2022-08-03T22:02:55.248Z,9.43
2022-08-03T22:05:42.512Z,9.30
2022-08-03T22:08:14.448Z,8.98
2022-08-03T22:10:45.504Z,9.45
2022-08-03T22:13:15.247Z,9.75
2022-08-03T22:15:44.539Z,9.82
2022-08-03T22:18:13.751Z,9.98
2022-08-03T22:20:42.131Z,10.02
2022-08-03T22:23:12.426Z,9.73
2022-08-03T22:25:41.479Z,11.10
2022-08-03T22:28:11.940Z,10.80
2022-08-03T22:30:41.691Z,10.63
2022-08-03T22:33:12.276Z,10.75
2022-08-03T22:35:47.495Z,10.35
2022-08-03T22:38:19.085Z,9.63
2022-08-03T22:40:50.887Z,10.48
2022-08-03T22:43:22.764Z,9.77
2022-08-03T22:46:10.661Z,10.60
2022-08-03T22:48:41.715Z,9.85
2022-08-03T22:51:10.999Z,10.48
2022-08-03T22:53:41.093Z,11.50
2022-08-03T22:56:09.884Z,10.45
2022-08-03T22:58:38.139Z,10.55
2022-08-03T23:01:09.078Z,10.15
2022-08-03T23:03:58.764Z,10.20
2022-08-03T23:06:34.771Z,9.68
2022-08-03T23:09:06.790Z,9.15
2022-08-03T23:11:38.033Z,10.27
2022-08-03T23:14:13.520Z,10.18
2022-08-03T23:16:43.631Z,9.98
2022-08-03T23:19:17.105Z,9.90
2022-08-03T23:22:02.456Z,9.25
2022-08-03T23:24:36.052Z,8.98
2022-08-03T23:27:05.643Z,9.23
2022-08-03T23:29:36.319Z,9.45
2022-08-03T23:32:06.067Z,9.00
2022-08-03T23:34:52.779Z,9.30
2022-08-03T23:37:21.497Z,8.20
2022-08-03T23:39:51.283Z,8.60
2022-08-03T23:42:21.029Z,8.57
2022-08-03T23:44:54.535Z,8.93
2022-08-03T23:47:23.362Z,8.30
2022-08-03T23:49:52.219Z,8.18
2022-08-03T23:52:30.177Z,8.68
2022-08-03T23:55:14.620Z,8.55
2022-08-03T23:57:53.504Z,9.40
